sensor_id;sensor_type;location;lat;lon;timestamp;P1;durP1;ratioP1;P2;durP2;ratioP2
53835;SDS011;39737;43.334;21.936;2022-08-19T00:01:04;2.65;;;1.85;;
53835;SDS011;39737;43.334;21.936;2022-08-19T00:03:51;7.03;;;2.95;;
53835;SDS011;39737;43.334;21.936;2022-08-19T00:06:37;3.42;;;2.03;;
53835;SDS011;39737;43.334;21.936;2022-08-19T00:09:24;4.85;;;2.70;;
53835;SDS011;39737;43.334;21.936;2022-08-19T00:12:10;3.08;;;2.28;;
53835;SDS011;39737;43.334;21.936;2022-08-19T00:14:56;2.50;;;2.10;;
53835;SDS011;39737;43.334;21.936;2022-08-19T00:17:43;5.10;;;2.47;;
53835;SDS011;39737;43.334;21.936;2022-08-19T00:20:29;3.30;;;2.33;;
53835;SDS011;39737;43.334;21.936;2022-08-19T00:23:16;2.90;;;1.90;;
53835;SDS011;39737;43.334;21.936;2022-08-19T00:26:05;6.60;;;2.42;;
53835;SDS011;39737;43.334;21.936;2022-08-19T00:28:52;2.50;;;1.95;;
53835;SDS011;39737;43.334;21.936;2022-08-19T00:31:38;2.75;;;2.15;;
53835;SDS011;39737;43.334;21.936;2022-08-19T00:34:24;5.47;;;2.30;;
53835;SDS011;39737;43.334;21.936;2022-08-19T00:37:14;4.13;;;2.17;;
53835;SDS011;39737;43.334;21.936;2022-08-19T00:40:01;3.53;;;2.38;;
53835;SDS011;39737;43.334;21.936;2022-08-19T00:43:10;4.75;;;2.40;;
53835;SDS011;39737;43.334;21.936;2022-08-19T00:45:56;4.32;;;2.40;;
53835;SDS011;39737;43.334;21.936;2022-08-19T00:48:42;2.45;;;2.25;;
53835;SDS011;39737;43.334;21.936;2022-08-19T00:51:29;2.67;;;2.00;;
53835;SDS011;39737;43.334;21.936;2022-08-19T00:54:16;3.08;;;1.85;;
53835;SDS011;39737;43.334;21.936;2022-08-19T00:57:03;3.05;;;2.60;;
53835;SDS011;39737;43.334;21.936;2022-08-19T00:59:51;2.38;;;1.73;;
53835;SDS011;39737;43.334;21.936;2022-08-19T01:03:13;2.15;;;1.95;;
53835;SDS011;39737;43.334;21.936;2022-08-19T01:05:59;3.28;;;2.00;;
53835;SDS011;39737;43.334;21.936;2022-08-19T01:08:45;3.85;;;2.33;;
53835;SDS011;39737;43.334;21.936;2022-08-19T01:11:36;7.28;;;2.60;;
53835;SDS011;39737;43.334;21.936;2022-08-19T01:14:23;2.70;;;2.10;;
53835;SDS011;39737;43.334;21.936;2022-08-19T01:17:10;5.63;;;2.30;;
53835;SDS011;39737;43.334;21.936;2022-08-19T01:19:57;2.03;;;1.77;;
53835;SDS011;39737;43.334;21.936;2022-08-19T01:22:46;3.05;;;2.00;;
53835;SDS011;39737;43.334;21.936;2022-08-19T01:25:42;4.43;;;2.70;;
53835;SDS011;39737;43.334;21.936;2022-08-19T01:28:29;3.83;;;2.22;;
53835;SDS011;39737;43.334;21.936;2022-08-19T01:31:25;2.15;;;1.98;;
53835;SDS011;39737;43.334;21.936;2022-08-19T01:34:12;3.55;;;1.90;;
53835;SDS011;39737;43.334;21.936;2022-08-19T01:37:17;2.72;;;1.92;;
53835;SDS011;39737;43.334;21.936;2022-08-19T01:40:12;2.50;;;2.30;;
53835;SDS011;39737;43.334;21.936;2022-08-19T01:42:59;2.63;;;2.42;;
53835;SDS011;39737;43.334;21.936;2022-08-19T01:45:45;3.40;;;2.53;;
53835;SDS011;39737;43.334;21.936;2022-08-19T01:48:35;3.05;;;2.75;;
53835;SDS011;39737;43.334;21.936;2022-08-19T01:51:22;6.65;;;2.92;;
53835;SDS011;39737;43.334;21.936;2022-08-19T01:54:09;4.63;;;2.67;;
53835;SDS011;39737;43.334;21.936;2022-08-19T01:57:00;3.13;;;2.45;;
53835;SDS011;39737;43.334;21.936;2022-08-19T01:59:47;5.47;;;3.17;;
53835;SDS011;39737;43.334;21.936;2022-08-19T02:02:33;4.40;;;2.72;;
53835;SDS011;39737;43.334;21.936;2022-08-19T02:05:19;6.88;;;2.95;;
53835;SDS011;39737;43.334;21.936;2022-08-19T02:08:07;3.78;;;2.65;;
53835;SDS011;39737;43.334;21.936;2022-08-19T02:10:53;5.28;;;3.05;;
53835;SDS011;39737;43.334;21.936;2022-08-19T02:13:39;5.05;;;2.88;;
53835;SDS011;39737;43.334;21.936;2022-08-19T02:16:26;9.18;;;2.90;;
53835;SDS011;39737;43.334;21.936;2022-08-19T02:19:13;6.03;;;2.85;;
53835;SDS011;39737;43.334;21.936;2022-08-19T02:21:59;9.60;;;3.78;;
53835;SDS011;39737;43.334;21.936;2022-08-19T02:24:45;4.65;;;2.92;;
53835;SDS011;39737;43.334;21.936;2022-08-19T02:27:32;3.13;;;2.83;;
53835;SDS011;39737;43.334;21.936;2022-08-19T02:30:19;3.85;;;2.33;;
53835;SDS011;39737;43.334;21.936;2022-08-19T02:33:05;3.42;;;2.70;;
53835;SDS011;39737;43.334;21.936;2022-08-19T02:35:51;3.10;;;2.53;;
53835;SDS011;39737;43.334;21.936;2022-08-19T02:38:38;3.80;;;2.38;;
53835;SDS011;39737;43.334;21.936;2022-08-19T02:41:25;3.92;;;2.55;;
53835;SDS011;39737;43.334;21.936;2022-08-19T02:44:12;3.80;;;2.83;;
53835;SDS011;39737;43.334;21.936;2022-08-19T02:47:15;5.80;;;2.95;;
53835;SDS011;39737;43.334;21.936;2022-08-19T02:50:01;2.80;;;2.20;;
53835;SDS011;39737;43.334;21.936;2022-08-19T02:52:48;4.75;;;2.72;;
53835;SDS011;39737;43.334;21.936;2022-08-19T02:55:34;4.65;;;3.00;;
53835;SDS011;39737;43.334;21.936;2022-08-19T02:58:31;3.65;;;2.60;;
53835;SDS011;39737;43.334;21.936;2022-08-19T03:01:35;3.10;;;2.78;;
53835;SDS011;39737;43.334;21.936;2022-08-19T03:04:22;5.10;;;2.55;;
53835;SDS011;39737;43.334;21.936;2022-08-19T03:07:09;2.45;;;2.25;;
53835;SDS011;39737;43.334;21.936;2022-08-19T03:09:56;4.80;;;2.65;;
53835;SDS011;39737;43.334;21.936;2022-08-19T03:12:42;4.32;;;3.25;;
53835;SDS011;39737;43.334;21.936;2022-08-19T03:15:28;5.15;;;3.13;;
53835;SDS011;39737;43.334;21.936;2022-08-19T03:18:14;6.03;;;3.30;;
53835;SDS011;39737;43.334;21.936;2022-08-19T03:21:03;8.90;;;3.58;;
53835;SDS011;39737;43.334;21.936;2022-08-19T03:24:08;4.10;;;2.83;;
53835;SDS011;39737;43.334;21.936;2022-08-19T03:26:54;6.43;;;3.22;;
53835;SDS011;39737;43.334;21.936;2022-08-19T03:29:43;4.35;;;3.08;;
53835;SDS011;39737;43.334;21.936;2022-08-19T03:32:29;5.38;;;3.03;;
53835;SDS011;39737;43.334;21.936;2022-08-19T03:35:17;4.47;;;2.92;;
53835;SDS011;39737;43.334;21.936;2022-08-19T03:38:04;4.90;;;3.00;;
53835;SDS011;39737;43.334;21.936;2022-08-19T03:40:51;3.92;;;2.70;;
53835;SDS011;39737;43.334;21.936;2022-08-19T03:43:39;5.55;;;2.60;;
53835;SDS011;39737;43.334;21.936;2022-08-19T03:46:28;8.80;;;3.00;;
53835;SDS011;39737;43.334;21.936;2022-08-19T03:49:14;7.30;;;2.97;;
53835;SDS011;39737;43.334;21.936;2022-08-19T03:52:03;5.57;;;3.50;;
53835;SDS011;39737;43.334;21.936;2022-08-19T03:55:11;7.63;;;2.72;;
53835;SDS011;39737;43.334;21.936;2022-08-19T03:57:57;4.65;;;2.67;;
53835;SDS011;39737;43.334;21.936;2022-08-19T04:00:43;11.02;;;3.30;;
53835;SDS011;39737;43.334;21.936;2022-08-19T04:03:29;2.53;;;2.20;;
53835;SDS011;39737;43.334;21.936;2022-08-19T04:06:20;5.18;;;2.80;;
53835;SDS011;39737;43.334;21.936;2022-08-19T04:09:09;5.63;;;2.50;;
53835;SDS011;39737;43.334;21.936;2022-08-19T04:11:56;3.70;;;2.38;;
53835;SDS011;39737;43.334;21.936;2022-08-19T04:14:42;3.33;;;2.92;;
53835;SDS011;39737;43.334;21.936;2022-08-19T04:17:28;3.90;;;2.92;;
53835;SDS011;39737;43.334;21.936;2022-08-19T04:20:15;3.45;;;2.75;;
53835;SDS011;39737;43.334;21.936;2022-08-19T04:23:01;2.65;;;2.15;;
53835;SDS011;39737;43.334;21.936;2022-08-19T04:25:47;2.40;;;2.20;;
53835;SDS011;39737;43.334;21.936;2022-08-19T04:28:33;3.47;;;2.13;;
53835;SDS011;39737;43.334;21.936;2022-08-19T04:31:23;4.10;;;2.95;;
53835;SDS011;39737;43.334;21.936;2022-08-19T04:34:13;3.33;;;2.25;;
53835;SDS011;39737;43.334;21.936;2022-08-19T04:36:59;4.80;;;2.80;;
53835;SDS011;39737;43.334;21.936;2022-08-19T04:39:45;3.58;;;2.60;;
53835;SDS011;39737;43.334;21.936;2022-08-19T04:42:50;4.07;;;2.33;;
53835;SDS011;39737;43.334;21.936;2022-08-19T04:45:36;8.07;;;3.22;;
53835;SDS011;39737;43.334;21.936;2022-08-19T04:48:28;4.38;;;2.58;;
53835;SDS011;39737;43.334;21.936;2022-08-19T04:51:14;4.65;;;3.08;;
53835;SDS011;39737;43.334;21.936;2022-08-19T04:54:00;3.88;;;3.17;;
53835;SDS011;39737;43.334;21.936;2022-08-19T04:56:46;6.63;;;3.20;;
53835;SDS011;39737;43.334;21.936;2022-08-19T04:59:36;5.68;;;3.03;;
53835;SDS011;39737;43.334;21.936;2022-08-19T05:02:22;3.50;;;2.55;;
53835;SDS011;39737;43.334;21.936;2022-08-19T05:05:10;4.45;;;2.75;;
53835;SDS011;39737;43.334;21.936;2022-08-19T05:07:57;7.47;;;4.00;;
53835;SDS011;39737;43.334;21.936;2022-08-19T05:10:44;2.85;;;2.20;;
53835;SDS011;39737;43.334;21.936;2022-08-19T05:13:30;4.80;;;2.63;;
53835;SDS011;39737;43.334;21.936;2022-08-19T05:16:18;2.53;;;2.15;;
53835;SDS011;39737;43.334;21.936;2022-08-19T05:19:04;3.20;;;2.67;;
53835;SDS011;39737;43.334;21.936;2022-08-19T05:22:08;6.13;;;2.72;;
53835;SDS011;39737;43.334;21.936;2022-08-19T05:25:15;8.57;;;3.20;;
53835;SDS011;39737;43.334;21.936;2022-08-19T05:28:04;4.07;;;2.92;;
53835;SDS011;39737;43.334;21.936;2022-08-19T05:30:50;8.60;;;3.20;;
53835;SDS011;39737;43.334;21.936;2022-08-19T05:33:36;6.00;;;3.22;;
53835;SDS011;39737;43.334;21.936;2022-08-19T05:36:23;4.18;;;3.75;;
53835;SDS011;39737;43.334;21.936;2022-08-19T05:39:10;6.05;;;3.50;;
53835;SDS011;39737;43.334;21.936;2022-08-19T05:41:58;4.38;;;2.67;;
53835;SDS011;39737;43.334;21.936;2022-08-19T05:44:45;3.45;;;2.67;;
53835;SDS011;39737;43.334;21.936;2022-08-19T05:47:31;5.85;;;2.42;;
53835;SDS011;39737;43.334;21.936;2022-08-19T05:50:17;2.60;;;2.40;;
53835;SDS011;39737;43.334;21.936;2022-08-19T05:53:04;5.18;;;2.80;;
53835;SDS011;39737;43.334;21.936;2022-08-19T05:55:50;4.30;;;2.60;;
53835;SDS011;39737;43.334;21.936;2022-08-19T05:58:36;2.47;;;2.17;;
53835;SDS011;39737;43.334;21.936;2022-08-19T06:01:23;3.30;;;2.45;;
53835;SDS011;39737;43.334;21.936;2022-08-19T06:04:09;3.45;;;2.17;;
53835;SDS011;39737;43.334;21.936;2022-08-19T06:06:55;3.50;;;2.40;;
53835;SDS011;39737;43.334;21.936;2022-08-19T06:09:42;6.43;;;3.17;;
53835;SDS011;39737;43.334;21.936;2022-08-19T06:12:44;3.58;;;2.80;;
53835;SDS011;39737;43.334;21.936;2022-08-19T06:15:30;2.97;;;2.25;;
53835;SDS011;39737;43.334;21.936;2022-08-19T06:18:16;3.55;;;2.35;;
53835;SDS011;39737;43.334;21.936;2022-08-19T06:21:03;2.55;;;2.33;;
53835;SDS011;39737;43.334;21.936;2022-08-19T06:23:50;3.38;;;2.75;;
53835;SDS011;39737;43.334;21.936;2022-08-19T06:26:38;7.88;;;3.17;;
53835;SDS011;39737;43.334;21.936;2022-08-19T06:29:43;2.90;;;2.40;;
53835;SDS011;39737;43.334;21.936;2022-08-19T06:32:29;9.07;;;2.53;;
53835;SDS011;39737;43.334;21.936;2022-08-19T06:35:16;5.68;;;3.03;;
53835;SDS011;39737;43.334;21.936;2022-08-19T06:38:02;4.63;;;2.97;;
53835;SDS011;39737;43.334;21.936;2022-08-19T06:40:50;6.60;;;2.85;;
53835;SDS011;39737;43.334;21.936;2022-08-19T06:43:36;8.93;;;2.60;;
53835;SDS011;39737;43.334;21.936;2022-08-19T06:46:27;7.97;;;2.88;;
53835;SDS011;39737;43.334;21.936;2022-08-19T06:49:13;7.78;;;3.47;;
53835;SDS011;39737;43.334;21.936;2022-08-19T06:51:59;4.25;;;2.80;;
53835;SDS011;39737;43.334;21.936;2022-08-19T06:54:46;6.82;;;2.88;;
53835;SDS011;39737;43.334;21.936;2022-08-19T06:57:41;3.47;;;2.58;;
53835;SDS011;39737;43.334;21.936;2022-08-19T07:00:28;11.85;;;2.83;;
53835;SDS011;39737;43.334;21.936;2022-08-19T07:03:33;6.05;;;2.95;;
53835;SDS011;39737;43.334;21.936;2022-08-19T07:06:22;3.00;;;2.30;;
53835;SDS011;39737;43.334;21.936;2022-08-19T07:09:47;5.35;;;2.80;;
53835;SDS011;39737;43.334;21.936;2022-08-19T07:12:44;4.28;;;2.53;;
53835;SDS011;39737;43.334;21.936;2022-08-19T07:15:33;4.05;;;2.50;;
53835;SDS011;39737;43.334;21.936;2022-08-19T07:18:25;2.30;;;2.08;;
53835;SDS011;39737;43.334;21.936;2022-08-19T07:21:13;2.50;;;2.30;;
53835;SDS011;39737;43.334;21.936;2022-08-19T07:24:00;12.30;;;3.10;;
53835;SDS011;39737;43.334;21.936;2022-08-19T07:26:52;3.20;;;2.10;;
53835;SDS011;39737;43.334;21.936;2022-08-19T07:29:38;3.97;;;2.58;;
53835;SDS011;39737;43.334;21.936;2022-08-19T07:32:24;5.43;;;2.83;;
53835;SDS011;39737;43.334;21.936;2022-08-19T07:35:13;2.40;;;2.17;;
53835;SDS011;39737;43.334;21.936;2022-08-19T07:37:59;2.45;;;1.80;;
53835;SDS011;39737;43.334;21.936;2022-08-19T07:40:48;3.28;;;2.30;;
53835;SDS011;39737;43.334;21.936;2022-08-19T07:43:34;4.15;;;1.95;;
53835;SDS011;39737;43.334;21.936;2022-08-19T07:46:20;2.53;;;1.92;;
53835;SDS011;39737;43.334;21.936;2022-08-19T07:49:07;2.13;;;1.92;;
53835;SDS011;39737;43.334;21.936;2022-08-19T07:51:58;3.05;;;2.28;;
53835;SDS011;39737;43.334;21.936;2022-08-19T07:54:44;4.05;;;2.10;;
53835;SDS011;39737;43.334;21.936;2022-08-19T07:57:31;3.55;;;2.72;;
53835;SDS011;39737;43.334;21.936;2022-08-19T08:00:17;3.60;;;2.38;;
53835;SDS011;39737;43.334;21.936;2022-08-19T08:03:09;3.00;;;2.13;;
53835;SDS011;39737;43.334;21.936;2022-08-19T08:05:55;2.33;;;2.13;;
53835;SDS011;39737;43.334;21.936;2022-08-19T08:08:59;2.50;;;2.10;;
53835;SDS011;39737;43.334;21.936;2022-08-19T08:12:05;3.97;;;2.55;;
53835;SDS011;39737;43.334;21.936;2022-08-19T08:15:14;12.85;;;2.35;;
53835;SDS011;39737;43.334;21.936;2022-08-19T08:18:01;5.18;;;2.08;;
53835;SDS011;39737;43.334;21.936;2022-08-19T08:20:48;3.15;;;2.20;;
53835;SDS011;39737;43.334;21.936;2022-08-19T08:23:35;2.53;;;1.98;;
53835;SDS011;39737;43.334;21.936;2022-08-19T08:26:24;4.10;;;1.63;;
53835;SDS011;39737;43.334;21.936;2022-08-19T08:29:30;3.72;;;2.45;;
53835;SDS011;39737;43.334;21.936;2022-08-19T08:32:19;11.32;;;1.80;;
53835;SDS011;39737;43.334;21.936;2022-08-19T08:35:06;2.38;;;2.13;;
53835;SDS011;39737;43.334;21.936;2022-08-19T08:37:53;5.60;;;1.75;;
53835;SDS011;39737;43.334;21.936;2022-08-19T08:41:04;2.80;;;1.80;;
53835;SDS011;39737;43.334;21.936;2022-08-19T08:43:52;2.67;;;1.67;;
53835;SDS011;39737;43.334;21.936;2022-08-19T08:46:43;2.67;;;2.33;;
53835;SDS011;39737;43.334;21.936;2022-08-19T08:50:01;2.00;;;1.80;;
53835;SDS011;39737;43.334;21.936;2022-08-19T08:52:50;4.00;;;1.75;;
53835;SDS011;39737;43.334;21.936;2022-08-19T08:55:39;3.22;;;2.13;;
53835;SDS011;39737;43.334;21.936;2022-08-19T08:58:28;3.95;;;1.85;;
53835;SDS011;39737;43.334;21.936;2022-08-19T09:01:16;4.72;;;2.25;;
53835;SDS011;39737;43.334;21.936;2022-08-19T09:04:21;3.58;;;2.28;;
53835;SDS011;39737;43.334;21.936;2022-08-19T09:10:22;6.78;;;2.25;;
53835;SDS011;39737;43.334;21.936;2022-08-19T09:13:14;3.97;;;2.03;;
53835;SDS011;39737;43.334;21.936;2022-08-19T09:16:05;2.83;;;2.00;;
53835;SDS011;39737;43.334;21.936;2022-08-19T09:18:53;9.48;;;2.05;;
53835;SDS011;39737;43.334;21.936;2022-08-19T09:21:39;1.90;;;1.45;;
53835;SDS011;39737;43.334;21.936;2022-08-19T09:24:26;1.40;;;1.30;;
53835;SDS011;39737;43.334;21.936;2022-08-19T09:27:15;13.35;;;1.67;;
53835;SDS011;39737;43.334;21.936;2022-08-19T09:30:03;2.20;;;1.90;;
53835;SDS011;39737;43.334;21.936;2022-08-19T09:32:51;3.40;;;1.90;;
53835;SDS011;39737;43.334;21.936;2022-08-19T09:35:41;3.60;;;1.92;;
53835;SDS011;39737;43.334;21.936;2022-08-19T09:38:37;4.57;;;1.77;;
53835;SDS011;39737;43.334;21.936;2022-08-19T09:41:28;2.28;;;1.67;;
53835;SDS011;39737;43.334;21.936;2022-08-19T09:44:14;4.35;;;2.25;;
53835;SDS011;39737;43.334;21.936;2022-08-19T09:47:00;2.83;;;2.20;;
53835;SDS011;39737;43.334;21.936;2022-08-19T09:49:46;4.57;;;1.90;;
53835;SDS011;39737;43.334;21.936;2022-08-19T09:52:34;3.83;;;2.50;;
53835;SDS011;39737;43.334;21.936;2022-08-19T09:55:24;2.35;;;2.03;;
53835;SDS011;39737;43.334;21.936;2022-08-19T09:58:17;3.50;;;2.20;;
53835;SDS011;39737;43.334;21.936;2022-08-19T10:01:09;3.03;;;2.22;;
53835;SDS011;39737;43.334;21.936;2022-08-19T10:03:56;3.35;;;2.15;;
53835;SDS011;39737;43.334;21.936;2022-08-19T10:06:42;3.10;;;1.70;;
53835;SDS011;39737;43.334;21.936;2022-08-19T10:09:31;4.10;;;2.10;;
53835;SDS011;39737;43.334;21.936;2022-08-19T10:12:19;2.08;;;1.77;;
53835;SDS011;39737;43.334;21.936;2022-08-19T10:15:05;2.95;;;1.80;;
53835;SDS011;39737;43.334;21.936;2022-08-19T10:17:52;2.90;;;1.63;;
53835;SDS011;39737;43.334;21.936;2022-08-19T10:20:40;3.08;;;2.25;;
53835;SDS011;39737;43.334;21.936;2022-08-19T10:23:28;3.38;;;2.65;;
53835;SDS011;39737;43.334;21.936;2022-08-19T10:26:20;2.58;;;1.83;;
53835;SDS011;39737;43.334;21.936;2022-08-19T10:29:06;4.55;;;2.55;;
53835;SDS011;39737;43.334;21.936;2022-08-19T10:31:53;3.80;;;2.75;;
53835;SDS011;39737;43.334;21.936;2022-08-19T10:34:46;3.97;;;2.95;;
53835;SDS011;39737;43.334;21.936;2022-08-19T10:37:34;4.32;;;2.13;;
53835;SDS011;39737;43.334;21.936;2022-08-19T10:40:20;3.17;;;2.17;;
53835;SDS011;39737;43.334;21.936;2022-08-19T10:43:06;6.45;;;2.95;;
53835;SDS011;39737;43.334;21.936;2022-08-19T10:45:53;3.65;;;2.65;;
53835;SDS011;39737;43.334;21.936;2022-08-19T10:48:44;2.40;;;2.08;;
53835;SDS011;39737;43.334;21.936;2022-08-19T10:51:30;2.17;;;1.73;;
53835;SDS011;39737;43.334;21.936;2022-08-19T10:54:34;2.20;;;2.00;;
53835;SDS011;39737;43.334;21.936;2022-08-19T10:57:39;2.38;;;2.10;;
53835;SDS011;39737;43.334;21.936;2022-08-19T11:00:50;5.85;;;2.17;;
53835;SDS011;39737;43.334;21.936;2022-08-19T11:03:37;13.03;;;1.60;;
53835;SDS011;39737;43.334;21.936;2022-08-19T11:06:38;2.38;;;1.65;;
53835;SDS011;39737;43.334;21.936;2022-08-19T11:09:25;2.50;;;1.77;;
53835;SDS011;39737;43.334;21.936;2022-08-19T11:12:19;2.00;;;1.55;;
53835;SDS011;39737;43.334;21.936;2022-08-19T11:15:08;1.92;;;1.60;;
53835;SDS011;39737;43.334;21.936;2022-08-19T11:17:56;3.25;;;2.05;;
53835;SDS011;39737;43.334;21.936;2022-08-19T11:20:42;1.42;;;1.23;;
53835;SDS011;39737;43.334;21.936;2022-08-19T11:23:29;2.75;;;2.13;;
53835;SDS011;39737;43.334;21.936;2022-08-19T11:26:15;1.90;;;1.70;;
53835;SDS011;39737;43.334;21.936;2022-08-19T11:29:03;1.55;;;1.33;;
53835;SDS011;39737;43.334;21.936;2022-08-19T11:31:49;3.45;;;2.33;;
53835;SDS011;39737;43.334;21.936;2022-08-19T11:34:35;2.58;;;1.45;;
53835;SDS011;39737;43.334;21.936;2022-08-19T11:37:22;3.53;;;1.98;;
53835;SDS011;39737;43.334;21.936;2022-08-19T11:40:08;3.60;;;1.65;;
53835;SDS011;39737;43.334;21.936;2022-08-19T11:42:55;1.73;;;1.58;;
53835;SDS011;39737;43.334;21.936;2022-08-19T11:45:41;3.95;;;1.95;;
53835;SDS011;39737;43.334;21.936;2022-08-19T11:48:28;5.20;;;1.83;;
53835;SDS011;39737;43.334;21.936;2022-08-19T11:51:15;3.05;;;1.63;;
53835;SDS011;39737;43.334;21.936;2022-08-19T11:54:02;1.90;;;1.50;;
53835;SDS011;39737;43.334;21.936;2022-08-19T11:56:49;1.83;;;1.42;;
53835;SDS011;39737;43.334;21.936;2022-08-19T11:59:35;2.65;;;1.55;;
53835;SDS011;39737;43.334;21.936;2022-08-19T12:02:22;1.60;;;1.48;;
53835;SDS011;39737;43.334;21.936;2022-08-19T12:05:09;2.80;;;1.98;;
53835;SDS011;39737;43.334;21.936;2022-08-19T12:07:57;5.55;;;1.85;;
53835;SDS011;39737;43.334;21.936;2022-08-19T12:10:44;2.92;;;1.83;;
53835;SDS011;39737;43.334;21.936;2022-08-19T12:13:31;3.13;;;1.77;;
53835;SDS011;39737;43.334;21.936;2022-08-19T12:16:18;1.83;;;1.40;;
53835;SDS011;39737;43.334;21.936;2022-08-19T12:19:04;2.33;;;1.45;;
53835;SDS011;39737;43.334;21.936;2022-08-19T12:21:50;3.03;;;1.20;;
53835;SDS011;39737;43.334;21.936;2022-08-19T12:24:38;3.28;;;1.83;;
53835;SDS011;39737;43.334;21.936;2022-08-19T12:27:24;2.10;;;1.15;;
53835;SDS011;39737;43.334;21.936;2022-08-19T12:33:11;2.33;;;1.30;;
53835;SDS011;39737;43.334;21.936;2022-08-19T12:36:03;5.05;;;1.70;;
53835;SDS011;39737;43.334;21.936;2022-08-19T12:38:49;3.88;;;1.63;;
53835;SDS011;39737;43.334;21.936;2022-08-19T12:41:36;1.65;;;1.40;;
53835;SDS011;39737;43.334;21.936;2022-08-19T12:44:36;2.03;;;1.38;;
53835;SDS011;39737;43.334;21.936;2022-08-19T12:47:25;2.85;;;2.00;;
53835;SDS011;39737;43.334;21.936;2022-08-19T12:50:12;4.03;;;1.50;;
53835;SDS011;39737;43.334;21.936;2022-08-19T12:52:58;2.40;;;1.10;;
53835;SDS011;39737;43.334;21.936;2022-08-19T12:55:44;3.13;;;1.70;;
53835;SDS011;39737;43.334;21.936;2022-08-19T12:58:31;4.15;;;2.03;;
53835;SDS011;39737;43.334;21.936;2022-08-19T13:01:18;1.55;;;1.45;;
53835;SDS011;39737;43.334;21.936;2022-08-19T13:04:08;5.65;;;1.77;;
53835;SDS011;39737;43.334;21.936;2022-08-19T13:06:54;3.03;;;1.60;;
53835;SDS011;39737;43.334;21.936;2022-08-19T13:09:40;7.78;;;1.98;;
53835;SDS011;39737;43.334;21.936;2022-08-19T13:12:30;2.60;;;1.27;;
53835;SDS011;39737;43.334;21.936;2022-08-19T13:15:17;8.43;;;1.70;;
53835;SDS011;39737;43.334;21.936;2022-08-19T13:18:09;3.33;;;1.88;;
53835;SDS011;39737;43.334;21.936;2022-08-19T13:20:56;2.65;;;1.63;;
53835;SDS011;39737;43.334;21.936;2022-08-19T13:23:42;2.08;;;1.30;;
53835;SDS011;39737;43.334;21.936;2022-08-19T13:26:28;6.60;;;1.67;;
53835;SDS011;39737;43.334;21.936;2022-08-19T13:29:14;3.38;;;2.03;;
53835;SDS011;39737;43.334;21.936;2022-08-19T13:32:19;1.83;;;1.42;;
53835;SDS011;39737;43.334;21.936;2022-08-19T13:35:26;7.78;;;1.70;;
53835;SDS011;39737;43.334;21.936;2022-08-19T13:38:13;2.28;;;1.63;;
53835;SDS011;39737;43.334;21.936;2022-08-19T13:41:03;2.35;;;1.38;;
53835;SDS011;39737;43.334;21.936;2022-08-19T13:43:56;3.17;;;1.58;;
53835;SDS011;39737;43.334;21.936;2022-08-19T13:49:58;2.33;;;1.63;;
53835;SDS011;39737;43.334;21.936;2022-08-19T13:52:45;4.90;;;1.63;;
53835;SDS011;39737;43.334;21.936;2022-08-19T13:55:33;3.80;;;1.42;;
53835;SDS011;39737;43.334;21.936;2022-08-19T13:58:19;2.78;;;1.15;;
53835;SDS011;39737;43.334;21.936;2022-08-19T14:01:05;3.80;;;1.33;;
53835;SDS011;39737;43.334;21.936;2022-08-19T14:03:52;2.33;;;1.10;;
53835;SDS011;39737;43.334;21.936;2022-08-19T14:06:38;6.57;;;1.88;;
53835;SDS011;39737;43.334;21.936;2022-08-19T14:09:24;1.63;;;1.23;;
53835;SDS011;39737;43.334;21.936;2022-08-19T14:12:10;2.47;;;1.67;;
53835;SDS011;39737;43.334;21.936;2022-08-19T14:14:56;1.73;;;1.13;;
53835;SDS011;39737;43.334;21.936;2022-08-19T14:17:43;2.72;;;1.77;;
53835;SDS011;39737;43.334;21.936;2022-08-19T14:20:30;2.20;;;1.83;;
53835;SDS011;39737;43.334;21.936;2022-08-19T14:23:16;4.00;;;1.48;;
53835;SDS011;39737;43.334;21.936;2022-08-19T14:26:03;4.07;;;1.60;;
53835;SDS011;39737;43.334;21.936;2022-08-19T14:28:49;4.57;;;1.52;;
53835;SDS011;39737;43.334;21.936;2022-08-19T14:31:35;3.53;;;1.75;;
53835;SDS011;39737;43.334;21.936;2022-08-19T14:34:21;4.78;;;1.80;;
53835;SDS011;39737;43.334;21.936;2022-08-19T14:37:07;1.52;;;1.35;;
53835;SDS011;39737;43.334;21.936;2022-08-19T14:39:58;5.50;;;1.65;;
53835;SDS011;39737;43.334;21.936;2022-08-19T14:42:44;3.95;;;2.35;;
53835;SDS011;39737;43.334;21.936;2022-08-19T14:45:32;3.25;;;1.92;;
53835;SDS011;39737;43.334;21.936;2022-08-19T14:48:32;3.67;;;1.85;;
53835;SDS011;39737;43.334;21.936;2022-08-19T14:51:26;5.65;;;1.85;;
53835;SDS011;39737;43.334;21.936;2022-08-19T14:54:13;2.88;;;1.20;;
53835;SDS011;39737;43.334;21.936;2022-08-19T14:56:59;5.43;;;1.58;;
53835;SDS011;39737;43.334;21.936;2022-08-19T14:59:45;2.33;;;1.50;;
53835;SDS011;39737;43.334;21.936;2022-08-19T15:02:31;1.98;;;1.20;;
53835;SDS011;39737;43.334;21.936;2022-08-19T15:05:20;4.88;;;1.58;;
53835;SDS011;39737;43.334;21.936;2022-08-19T15:08:06;1.42;;;1.15;;
53835;SDS011;39737;43.334;21.936;2022-08-19T15:10:53;2.17;;;1.45;;
53835;SDS011;39737;43.334;21.936;2022-08-19T15:13:39;2.17;;;1.50;;
53835;SDS011;39737;43.334;21.936;2022-08-19T15:16:26;3.58;;;1.85;;
53835;SDS011;39737;43.334;21.936;2022-08-19T15:19:12;1.70;;;1.20;;
53835;SDS011;39737;43.334;21.936;2022-08-19T15:21:59;4.60;;;1.67;;
53835;SDS011;39737;43.334;21.936;2022-08-19T15:24:46;1.83;;;1.40;;
53835;SDS011;39737;43.334;21.936;2022-08-19T15:27:32;1.65;;;1.10;;
53835;SDS011;39737;43.334;21.936;2022-08-19T15:30:20;3.83;;;1.90;;
53835;SDS011;39737;43.334;21.936;2022-08-19T15:33:07;3.25;;;1.52;;
53835;SDS011;39737;43.334;21.936;2022-08-19T15:35:53;10.43;;;2.53;;
53835;SDS011;39737;43.334;21.936;2022-08-19T15:38:39;5.60;;;2.13;;
53835;SDS011;39737;43.334;21.936;2022-08-19T15:41:31;4.20;;;1.77;;
53835;SDS011;39737;43.334;21.936;2022-08-19T15:44:18;2.13;;;1.75;;
53835;SDS011;39737;43.334;21.936;2022-08-19T15:47:06;6.15;;;1.38;;
53835;SDS011;39737;43.334;21.936;2022-08-19T15:49:51;2.63;;;1.75;;
53835;SDS011;39737;43.334;21.936;2022-08-19T15:52:47;3.55;;;1.70;;
53835;SDS011;39737;43.334;21.936;2022-08-19T15:55:36;2.08;;;1.40;;
53835;SDS011;39737;43.334;21.936;2022-08-19T15:58:26;2.20;;;1.85;;
53835;SDS011;39737;43.334;21.936;2022-08-19T16:01:30;2.05;;;1.30;;
53835;SDS011;39737;43.334;21.936;2022-08-19T16:04:35;8.75;;;2.38;;
53835;SDS011;39737;43.334;21.936;2022-08-19T16:07:41;2.20;;;1.60;;
53835;SDS011;39737;43.334;21.936;2022-08-19T16:10:27;2.55;;;1.42;;
53835;SDS011;39737;43.334;21.936;2022-08-19T16:13:13;2.78;;;1.40;;
53835;SDS011;39737;43.334;21.936;2022-08-19T16:15:59;4.85;;;1.80;;
53835;SDS011;39737;43.334;21.936;2022-08-19T16:18:45;5.75;;;1.65;;
53835;SDS011;39737;43.334;21.936;2022-08-19T16:21:32;2.95;;;1.77;;
53835;SDS011;39737;43.334;21.936;2022-08-19T16:24:20;2.28;;;1.50;;
53835;SDS011;39737;43.334;21.936;2022-08-19T16:27:07;2.85;;;1.50;;
53835;SDS011;39737;43.334;21.936;2022-08-19T16:29:53;1.88;;;1.15;;
53835;SDS011;39737;43.334;21.936;2022-08-19T16:32:43;3.95;;;1.52;;
53835;SDS011;39737;43.334;21.936;2022-08-19T16:35:29;2.63;;;1.90;;
53835;SDS011;39737;43.334;21.936;2022-08-19T16:38:16;2.67;;;1.70;;
53835;SDS011;39737;43.334;21.936;2022-08-19T16:41:02;2.25;;;1.40;;
53835;SDS011;39737;43.334;21.936;2022-08-19T16:43:49;4.85;;;1.52;;
53835;SDS011;39737;43.334;21.936;2022-08-19T16:46:37;2.47;;;1.60;;
53835;SDS011;39737;43.334;21.936;2022-08-19T16:49:25;1.90;;;1.60;;
53835;SDS011;39737;43.334;21.936;2022-08-19T16:52:31;2.25;;;1.70;;